sensor_id;sensor_type;location;lat;lon;timestamp;temperature;humidity
16827;DHT22;8530;49.540;8.576;2023-04-01T00:01:55;11.40;95.50
16827;DHT22;8530;49.540;8.576;2023-04-01T00:04:22;11.40;95.50
16827;DHT22;8530;49.540;8.576;2023-04-01T00:06:49;11.40;95.50
16827;DHT22;8530;49.540;8.576;2023-04-01T00:09:17;11.40;95.50
16827;DHT22;8530;49.540;8.576;2023-04-01T00:11:43;11.40;95.50
16827;DHT22;8530;49.540;8.576;2023-04-01T00:14:11;11.40;95.40
16827;DHT22;8530;49.540;8.576;2023-04-01T00:16:38;11.40;95.40
16827;DHT22;8530;49.540;8.576;2023-04-01T00:19:06;11.40;95.40
16827;DHT22;8530;49.540;8.576;2023-04-01T00:21:33;11.40;95.40
16827;DHT22;8530;49.540;8.576;2023-04-01T00:24:01;11.40;95.40
16827;DHT22;8530;49.540;8.576;2023-04-01T00:26:27;11.40;95.40
16827;DHT22;8530;49.540;8.576;2023-04-01T00:28:54;11.40;95.30
16827;DHT22;8530;49.540;8.576;2023-04-01T00:31:21;11.40;95.30
16827;DHT22;8530;49.540;8.576;2023-04-01T00:33:48;11.40;95.50
16827;DHT22;8530;49.540;8.576;2023-04-01T00:36:18;11.40;95.20
16827;DHT22;8530;49.540;8.576;2023-04-01T00:38:45;11.40;95.20
16827;DHT22;8530;49.540;8.576;2023-04-01T00:41:13;11.40;95.20
16827;DHT22;8530;49.540;8.576;2023-04-01T00:43:41;11.40;95.20
16827;DHT22;8530;49.540;8.576;2023-04-01T00:46:08;11.40;95.20
16827;DHT22;8530;49.540;8.576;2023-04-01T00:48:38;11.40;95.10
16827;DHT22;8530;49.540;8.576;2023-04-01T00:51:08;11.40;95.10
16827;DHT22;8530;49.540;8.576;2023-04-01T00:53:42;11.40;95.10
16827;DHT22;8530;49.540;8.576;2023-04-01T00:56:14;11.40;95.00
16827;DHT22;8530;49.540;8.576;2023-04-01T00:58:46;11.40;95.00
16827;DHT22;8530;49.540;8.576;2023-04-01T01:01:15;11.40;95.00
16827;DHT22;8530;49.540;8.576;2023-04-01T01:03:41;11.40;94.90
16827;DHT22;8530;49.540;8.576;2023-04-01T01:06:11;11.40;94.90
16827;DHT22;8530;49.540;8.576;2023-04-01T01:09:05;11.40;94.90
16827;DHT22;8530;49.540;8.576;2023-04-01T01:11:37;11.40;94.90
16827;DHT22;8530;49.540;8.576;2023-04-01T01:14:16;11.40;94.90
16827;DHT22;8530;49.540;8.576;2023-04-01T01:16:51;11.40;94.80
16827;DHT22;8530;49.540;8.576;2023-04-01T01:19:38;11.40;94.80
16827;DHT22;8530;49.540;8.576;2023-04-01T01:22:22;11.40;94.70
16827;DHT22;8530;49.540;8.576;2023-04-01T01:27:51;11.40;94.70
16827;DHT22;8530;49.540;8.576;2023-04-01T01:30:39;11.40;94.70
16827;DHT22;8530;49.540;8.576;2023-04-01T01:33:25;11.40;94.60
16827;DHT22;8530;49.540;8.576;2023-04-01T01:35:58;11.40;94.60
16827;DHT22;8530;49.540;8.576;2023-04-01T01:38:28;11.40;94.50
16827;DHT22;8530;49.540;8.576;2023-04-01T01:40:58;11.40;94.50
16827;DHT22;8530;49.540;8.576;2023-04-01T01:43:29;11.40;94.50
16827;DHT22;8530;49.540;8.576;2023-04-01T01:46:00;11.40;94.40
16827;DHT22;8530;49.540;8.576;2023-04-01T01:48:29;11.40;94.40
16827;DHT22;8530;49.540;8.576;2023-04-01T01:50:58;11.40;94.30
16827;DHT22;8530;49.540;8.576;2023-04-01T01:53:26;11.40;94.30
16827;DHT22;8530;49.540;8.576;2023-04-01T01:55:52;11.40;94.30
16827;DHT22;8530;49.540;8.576;2023-04-01T01:58:23;11.40;94.20
16827;DHT22;8530;49.540;8.576;2023-04-01T02:00:54;11.40;94.20
16827;DHT22;8530;49.540;8.576;2023-04-01T02:03:23;11.50;94.20
16827;DHT22;8530;49.540;8.576;2023-04-01T02:05:52;11.50;94.20
16827;DHT22;8530;49.540;8.576;2023-04-01T02:08:24;11.50;94.10
16827;DHT22;8530;49.540;8.576;2023-04-01T02:10:58;11.50;94.00
16827;DHT22;8530;49.540;8.576;2023-04-01T02:13:29;11.50;94.00
16827;DHT22;8530;49.540;8.576;2023-04-01T02:16:00;11.50;93.90
16827;DHT22;8530;49.540;8.576;2023-04-01T02:18:30;11.50;93.90
16827;DHT22;8530;49.540;8.576;2023-04-01T02:20:59;11.50;93.70
16827;DHT22;8530;49.540;8.576;2023-04-01T02:23:28;11.50;93.70
16827;DHT22;8530;49.540;8.576;2023-04-01T02:25:55;11.60;93.70
16827;DHT22;8530;49.540;8.576;2023-04-01T02:28:23;11.50;93.60
16827;DHT22;8530;49.540;8.576;2023-04-01T02:30:50;11.60;93.50
16827;DHT22;8530;49.540;8.576;2023-04-01T02:33:19;11.50;93.50
16827;DHT22;8530;49.540;8.576;2023-04-01T02:35:46;11.50;93.60
16827;DHT22;8530;49.540;8.576;2023-04-01T02:38:13;11.50;93.30
16827;DHT22;8530;49.540;8.576;2023-04-01T02:40:45;11.50;93.30
16827;DHT22;8530;49.540;8.576;2023-04-01T02:43:12;11.50;93.30
16827;DHT22;8530;49.540;8.576;2023-04-01T02:45:38;11.50;93.20
16827;DHT22;8530;49.540;8.576;2023-04-01T02:48:05;11.50;93.20
16827;DHT22;8530;49.540;8.576;2023-04-01T02:50:32;11.50;93.10
16827;DHT22;8530;49.540;8.576;2023-04-01T02:53:00;11.50;93.10
16827;DHT22;8530;49.540;8.576;2023-04-01T02:55:28;11.50;93.10
16827;DHT22;8530;49.540;8.576;2023-04-01T02:57:56;11.50;93.00
16827;DHT22;8530;49.540;8.576;2023-04-01T03:00:23;11.50;93.00
16827;DHT22;8530;49.540;8.576;2023-04-01T03:02:50;11.50;93.00
16827;DHT22;8530;49.540;8.576;2023-04-01T03:05:17;11.50;92.90
16827;DHT22;8530;49.540;8.576;2023-04-01T03:07:44;11.50;92.90
16827;DHT22;8530;49.540;8.576;2023-04-01T03:10:10;11.50;92.80
16827;DHT22;8530;49.540;8.576;2023-04-01T03:12:37;11.50;92.80
16827;DHT22;8530;49.540;8.576;2023-04-01T03:15:06;11.50;92.80
16827;DHT22;8530;49.540;8.576;2023-04-01T03:17:33;11.50;92.80
16827;DHT22;8530;49.540;8.576;2023-04-01T03:19:59;11.40;92.70
16827;DHT22;8530;49.540;8.576;2023-04-01T03:22:26;11.40;92.70
16827;DHT22;8530;49.540;8.576;2023-04-01T03:24:53;11.40;92.70
16827;DHT22;8530;49.540;8.576;2023-04-01T03:27:19;11.40;92.70
16827;DHT22;8530;49.540;8.576;2023-04-01T03:29:46;11.40;92.70
16827;DHT22;8530;49.540;8.576;2023-04-01T03:32:14;11.40;92.70
16827;DHT22;8530;49.540;8.576;2023-04-01T03:34:41;11.40;92.70
16827;DHT22;8530;49.540;8.576;2023-04-01T03:37:08;11.40;92.70
16827;DHT22;8530;49.540;8.576;2023-04-01T03:39:35;11.30;92.70
16827;DHT22;8530;49.540;8.576;2023-04-01T03:42:02;11.30;92.70
16827;DHT22;8530;49.540;8.576;2023-04-01T03:44:30;11.30;92.70
16827;DHT22;8530;49.540;8.576;2023-04-01T03:46:57;11.30;92.80
16827;DHT22;8530;49.540;8.576;2023-04-01T03:49:25;11.30;92.80
16827;DHT22;8530;49.540;8.576;2023-04-01T03:51:52;11.30;92.80
16827;DHT22;8530;49.540;8.576;2023-04-01T03:54:20;11.30;92.80
16827;DHT22;8530;49.540;8.576;2023-04-01T03:56:47;11.30;92.80
16827;DHT22;8530;49.540;8.576;2023-04-01T03:59:13;11.30;92.90
16827;DHT22;8530;49.540;8.576;2023-04-01T04:01:40;11.30;92.90
16827;DHT22;8530;49.540;8.576;2023-04-01T04:04:07;11.30;92.90
16827;DHT22;8530;49.540;8.576;2023-04-01T04:06:35;11.30;92.90
16827;DHT22;8530;49.540;8.576;2023-04-01T04:09:02;11.30;93.10
16827;DHT22;8530;49.540;8.576;2023-04-01T04:11:30;11.30;92.90
16827;DHT22;8530;49.540;8.576;2023-04-01T04:13:57;11.30;92.90
16827;DHT22;8530;49.540;8.576;2023-04-01T04:16:24;11.30;92.90
16827;DHT22;8530;49.540;8.576;2023-04-01T04:18:50;11.30;92.90
16827;DHT22;8530;49.540;8.576;2023-04-01T04:21:17;11.30;92.90
16827;DHT22;8530;49.540;8.576;2023-04-01T04:23:45;11.30;92.90
16827;DHT22;8530;49.540;8.576;2023-04-01T04:26:13;11.30;92.90
16827;DHT22;8530;49.540;8.576;2023-04-01T04:28:40;11.30;92.90
16827;DHT22;8530;49.540;8.576;2023-04-01T04:31:07;11.30;92.90
16827;DHT22;8530;49.540;8.576;2023-04-01T04:33:35;11.30;92.90
16827;DHT22;8530;49.540;8.576;2023-04-01T04:36:03;11.30;92.90
16827;DHT22;8530;49.540;8.576;2023-04-01T04:38:30;11.30;92.90
16827;DHT22;8530;49.540;8.576;2023-04-01T04:40:58;11.40;92.90
16827;DHT22;8530;49.540;8.576;2023-04-01T04:43:25;11.40;92.90
16827;DHT22;8530;49.540;8.576;2023-04-01T04:45:52;11.40;92.90
16827;DHT22;8530;49.540;8.576;2023-04-01T04:48:18;11.40;92.80
16827;DHT22;8530;49.540;8.576;2023-04-01T04:50:46;11.40;92.80
16827;DHT22;8530;49.540;8.576;2023-04-01T04:53:14;11.40;93.00
16827;DHT22;8530;49.540;8.576;2023-04-01T04:55:43;11.40;92.70
16827;DHT22;8530;49.540;8.576;2023-04-01T04:58:11;11.40;92.60
16827;DHT22;8530;49.540;8.576;2023-04-01T05:00:38;11.40;92.60
16827;DHT22;8530;49.540;8.576;2023-04-01T05:03:05;11.40;92.60
16827;DHT22;8530;49.540;8.576;2023-04-01T05:05:32;11.40;92.60
16827;DHT22;8530;49.540;8.576;2023-04-01T05:07:58;11.40;92.60
16827;DHT22;8530;49.540;8.576;2023-04-01T05:10:25;11.40;92.70
16827;DHT22;8530;49.540;8.576;2023-04-01T05:12:52;11.40;92.70
16827;DHT22;8530;49.540;8.576;2023-04-01T05:15:20;11.30;92.70
16827;DHT22;8530;49.540;8.576;2023-04-01T05:17:47;11.30;92.70
16827;DHT22;8530;49.540;8.576;2023-04-01T05:20:14;11.30;92.80
16827;DHT22;8530;49.540;8.576;2023-04-01T05:22:41;11.30;92.80
16827;DHT22;8530;49.540;8.576;2023-04-01T05:25:08;11.30;92.80
16827;DHT22;8530;49.540;8.576;2023-04-01T05:27:35;11.30;92.90
16827;DHT22;8530;49.540;8.576;2023-04-01T05:30:02;11.30;92.90
16827;DHT22;8530;49.540;8.576;2023-04-01T05:32:32;11.30;92.90
16827;DHT22;8530;49.540;8.576;2023-04-01T05:34:58;11.30;93.00
16827;DHT22;8530;49.540;8.576;2023-04-01T05:37:25;11.30;93.00
16827;DHT22;8530;49.540;8.576;2023-04-01T05:39:52;11.30;93.00
16827;DHT22;8530;49.540;8.576;2023-04-01T05:42:18;11.30;93.00
16827;DHT22;8530;49.540;8.576;2023-04-01T05:44:45;11.30;93.10
16827;DHT22;8530;49.540;8.576;2023-04-01T05:47:12;11.30;93.10
16827;DHT22;8530;49.540;8.576;2023-04-01T05:49:40;11.30;93.10
16827;DHT22;8530;49.540;8.576;2023-04-01T05:52:07;11.30;93.20
16827;DHT22;8530;49.540;8.576;2023-04-01T05:54:34;11.30;93.20
16827;DHT22;8530;49.540;8.576;2023-04-01T05:57:00;11.30;93.20
16827;DHT22;8530;49.540;8.576;2023-04-01T05:59:27;11.40;93.30
16827;DHT22;8530;49.540;8.576;2023-04-01T06:01:56;11.40;93.30
16827;DHT22;8530;49.540;8.576;2023-04-01T06:04:23;11.40;93.30
16827;DHT22;8530;49.540;8.576;2023-04-01T06:06:52;11.40;93.30
16827;DHT22;8530;49.540;8.576;2023-04-01T06:09:21;11.40;93.40
16827;DHT22;8530;49.540;8.576;2023-04-01T06:12:15;11.40;93.40
16827;DHT22;8530;49.540;8.576;2023-04-01T06:14:50;11.40;93.40
16827;DHT22;8530;49.540;8.576;2023-04-01T06:17:26;11.50;93.40
16827;DHT22;8530;49.540;8.576;2023-04-01T06:19:58;11.50;93.50
16827;DHT22;8530;49.540;8.576;2023-04-01T06:23:00;11.50;93.50
16827;DHT22;8530;49.540;8.576;2023-04-01T06:25:43;11.50;93.50
16827;DHT22;8530;49.540;8.576;2023-04-01T06:28:44;11.50;93.50
16827;DHT22;8530;49.540;8.576;2023-04-01T06:31:23;11.50;93.50
16827;DHT22;8530;49.540;8.576;2023-04-01T06:34:00;11.50;93.50
16827;DHT22;8530;49.540;8.576;2023-04-01T06:36:42;11.50;93.50
16827;DHT22;8530;49.540;8.576;2023-04-01T06:39:39;11.50;93.50
16827;DHT22;8530;49.540;8.576;2023-04-01T06:42:27;11.50;93.50
16827;DHT22;8530;49.540;8.576;2023-04-01T06:45:07;11.50;93.50
16827;DHT22;8530;49.540;8.576;2023-04-01T06:47:46;11.50;93.50
16827;DHT22;8530;49.540;8.576;2023-04-01T06:50:21;11.50;93.50
16827;DHT22;8530;49.540;8.576;2023-04-01T06:52:56;11.50;93.50
16827;DHT22;8530;49.540;8.576;2023-04-01T06:55:29;11.50;93.50
16827;DHT22;8530;49.540;8.576;2023-04-01T06:58:04;11.50;93.50
16827;DHT22;8530;49.540;8.576;2023-04-01T07:00:34;11.60;93.50
16827;DHT22;8530;49.540;8.576;2023-04-01T07:03:08;11.60;93.50
16827;DHT22;8530;49.540;8.576;2023-04-01T07:05:37;11.60;93.50
16827;DHT22;8530;49.540;8.576;2023-04-01T07:08:08;11.60;93.50
16827;DHT22;8530;49.540;8.576;2023-04-01T07:10:43;11.70;93.50
16827;DHT22;8530;49.540;8.576;2023-04-01T07:13:15;11.70;93.50
16827;DHT22;8530;49.540;8.576;2023-04-01T07:15:48;11.80;93.50
16827;DHT22;8530;49.540;8.576;2023-04-01T07:18:17;11.90;93.60
16827;DHT22;8530;49.540;8.576;2023-04-01T07:20:46;12.00;93.60
16827;DHT22;8530;49.540;8.576;2023-04-01T07:23:19;12.00;93.50
16827;DHT22;8530;49.540;8.576;2023-04-01T07:25:52;12.00;93.40
16827;DHT22;8530;49.540;8.576;2023-04-01T07:28:20;12.00;93.30
16827;DHT22;8530;49.540;8.576;2023-04-01T07:30:56;12.10;93.30
16827;DHT22;8530;49.540;8.576;2023-04-01T07:33:34;12.10;93.20
16827;DHT22;8530;49.540;8.576;2023-04-01T07:36:08;12.10;93.20
16827;DHT22;8530;49.540;8.576;2023-04-01T07:38:47;12.10;93.20
16827;DHT22;8530;49.540;8.576;2023-04-01T07:41:25;12.10;93.20
16827;DHT22;8530;49.540;8.576;2023-04-01T07:44:05;12.20;93.20
16827;DHT22;8530;49.540;8.576;2023-04-01T07:46:47;12.20;93.20
16827;DHT22;8530;49.540;8.576;2023-04-01T07:49:18;12.20;93.10
16827;DHT22;8530;49.540;8.576;2023-04-01T07:51:54;12.20;93.10
16827;DHT22;8530;49.540;8.576;2023-04-01T07:54:31;12.20;93.10
16827;DHT22;8530;49.540;8.576;2023-04-01T07:57:03;12.20;93.00
16827;DHT22;8530;49.540;8.576;2023-04-01T07:59:41;12.20;93.00
16827;DHT22;8530;49.540;8.576;2023-04-01T08:02:20;12.10;93.00
16827;DHT22;8530;49.540;8.576;2023-04-01T08:04:56;12.10;93.00
16827;DHT22;8530;49.540;8.576;2023-04-01T08:07:31;12.20;93.30
16827;DHT22;8530;49.540;8.576;2023-04-01T08:10:02;12.30;93.10
16827;DHT22;8530;49.540;8.576;2023-04-01T08:12:41;12.30;93.10
16827;DHT22;8530;49.540;8.576;2023-04-01T08:15:16;12.40;93.10
16827;DHT22;8530;49.540;8.576;2023-04-01T08:17:54;12.50;93.10
16827;DHT22;8530;49.540;8.576;2023-04-01T08:20:29;12.50;93.00
16827;DHT22;8530;49.540;8.576;2023-04-01T08:23:01;12.50;93.00
16827;DHT22;8530;49.540;8.576;2023-04-01T08:25:30;12.40;92.90
16827;DHT22;8530;49.540;8.576;2023-04-01T08:28:08;12.40;92.90
16827;DHT22;8530;49.540;8.576;2023-04-01T08:30:41;12.40;92.90
16827;DHT22;8530;49.540;8.576;2023-04-01T08:33:12;12.40;92.90
16827;DHT22;8530;49.540;8.576;2023-04-01T08:35:43;12.30;92.90
16827;DHT22;8530;49.540;8.576;2023-04-01T08:38:15;12.30;93.00
16827;DHT22;8530;49.540;8.576;2023-04-01T08:40:56;12.30;93.00
16827;DHT22;8530;49.540;8.576;2023-04-01T08:43:44;12.20;93.10
16827;DHT22;8530;49.540;8.576;2023-04-01T08:46:25;12.20;93.20
16827;DHT22;8530;49.540;8.576;2023-04-01T08:49:10;12.20;93.20
16827;DHT22;8530;49.540;8.576;2023-04-01T08:52:03;12.20;93.30
16827;DHT22;8530;49.540;8.576;2023-04-01T08:57:45;12.30;93.70
16827;DHT22;8530;49.540;8.576;2023-04-01T09:00:25;12.30;93.50
16827;DHT22;8530;49.540;8.576;2023-04-01T09:03:10;12.30;93.50
16827;DHT22;8530;49.540;8.576;2023-04-01T09:06:12;12.30;93.50
16827;DHT22;8530;49.540;8.576;2023-04-01T09:09:11;12.40;93.70
16827;DHT22;8530;49.540;8.576;2023-04-01T09:12:08;12.40;93.70
16827;DHT22;8530;49.540;8.576;2023-04-01T09:14:53;12.40;93.70
16827;DHT22;8530;49.540;8.576;2023-04-01T09:17:48;12.40;93.70
16827;DHT22;8530;49.540;8.576;2023-04-01T09:20:45;12.40;93.80
16827;DHT22;8530;49.540;8.576;2023-04-01T09:23:29;12.40;93.90
16827;DHT22;8530;49.540;8.576;2023-04-01T09:26:08;12.50;94.00
16827;DHT22;8530;49.540;8.576;2023-04-01T09:28:42;12.50;94.00
16827;DHT22;8530;49.540;8.576;2023-04-01T09:31:24;12.60;94.10
16827;DHT22;8530;49.540;8.576;2023-04-01T09:37:00;12.60;94.10
16827;DHT22;8530;49.540;8.576;2023-04-01T09:39:36;12.60;94.10
16827;DHT22;8530;49.540;8.576;2023-04-01T09:42:15;12.60;94.10
16827;DHT22;8530;49.540;8.576;2023-04-01T09:44:50;12.60;94.20
16827;DHT22;8530;49.540;8.576;2023-04-01T09:47:33;12.60;94.30
16827;DHT22;8530;49.540;8.576;2023-04-01T09:50:17;12.70;94.40
16827;DHT22;8530;49.540;8.576;2023-04-01T09:52:54;12.70;94.40
16827;DHT22;8530;49.540;8.576;2023-04-01T09:56:00;12.80;94.40
16827;DHT22;8530;49.540;8.576;2023-04-01T09:58:56;12.80;94.50
16827;DHT22;8530;49.540;8.576;2023-04-01T10:01:45;12.90;94.50
16827;DHT22;8530;49.540;8.576;2023-04-01T10:04:50;12.90;94.50
16827;DHT22;8530;49.540;8.576;2023-04-01T10:07:55;12.90;94.50
16827;DHT22;8530;49.540;8.576;2023-04-01T10:10:46;13.00;94.50
16827;DHT22;8530;49.540;8.576;2023-04-01T10:17:00;12.90;94.60
16827;DHT22;8530;49.540;8.576;2023-04-01T10:19:53;13.00;94.70
16827;DHT22;8530;49.540;8.576;2023-04-01T10:22:50;13.00;94.70
16827;DHT22;8530;49.540;8.576;2023-04-01T10:25:42;13.00;94.80
16827;DHT22;8530;49.540;8.576;2023-04-01T10:28:40;13.10;94.80
16827;DHT22;8530;49.540;8.576;2023-04-01T10:31:27;13.10;94.80
16827;DHT22;8530;49.540;8.576;2023-04-01T10:34:20;13.10;94.80
16827;DHT22;8530;49.540;8.576;2023-04-01T10:36:55;13.10;94.80
16827;DHT22;8530;49.540;8.576;2023-04-01T10:39:51;13.10;94.90
16827;DHT22;8530;49.540;8.576;2023-04-01T10:45:53;13.10;95.00
16827;DHT22;8530;49.540;8.576;2023-04-01T10:49:04;13.10;95.00
16827;DHT22;8530;49.540;8.576;2023-04-01T10:55:10;13.10;95.10
16827;DHT22;8530;49.540;8.576;2023-04-01T10:58:04;13.10;95.10
16827;DHT22;8530;49.540;8.576;2023-04-01T11:10:38;13.00;95.40
16827;DHT22;8530;49.540;8.576;2023-04-01T11:13:39;13.00;95.50
16827;DHT22;8530;49.540;8.576;2023-04-01T11:19:47;13.00;95.90
16827;DHT22;8530;49.540;8.576;2023-04-01T11:22:36;13.00;95.70
16827;DHT22;8530;49.540;8.576;2023-04-01T11:25:17;13.00;95.80
16827;DHT22;8530;49.540;8.576;2023-04-01T11:28:08;13.00;95.80
16827;DHT22;8530;49.540;8.576;2023-04-01T11:30:53;13.10;96.00
16827;DHT22;8530;49.540;8.576;2023-04-01T11:33:30;13.20;96.00
16827;DHT22;8530;49.540;8.576;2023-04-01T11:36:19;13.20;96.00
16827;DHT22;8530;49.540;8.576;2023-04-01T11:39:00;13.30;96.30
16827;DHT22;8530;49.540;8.576;2023-04-01T11:41:35;13.30;96.00
16827;DHT22;8530;49.540;8.576;2023-04-01T11:44:14;13.30;96.00
16827;DHT22;8530;49.540;8.576;2023-04-01T11:46:52;13.30;96.10
16827;DHT22;8530;49.540;8.576;2023-04-01T11:52:39;13.40;96.20
16827;DHT22;8530;49.540;8.576;2023-04-01T11:55:28;13.40;96.10
16827;DHT22;8530;49.540;8.576;2023-04-01T11:58:21;13.40;96.10
16827;DHT22;8530;49.540;8.576;2023-04-01T12:01:16;13.40;96.10
16827;DHT22;8530;49.540;8.576;2023-04-01T12:04:00;13.40;96.10
16827;DHT22;8530;49.540;8.576;2023-04-01T12:06:35;13.40;96.10
16827;DHT22;8530;49.540;8.576;2023-04-01T12:09:11;13.40;96.00
16827;DHT22;8530;49.540;8.576;2023-04-01T12:11:50;13.40;95.80
16827;DHT22;8530;49.540;8.576;2023-04-01T12:14:22;13.40;95.80
16827;DHT22;8530;49.540;8.576;2023-04-01T12:16:58;13.40;95.70
16827;DHT22;8530;49.540;8.576;2023-04-01T12:19:34;13.50;95.60
16827;DHT22;8530;49.540;8.576;2023-04-01T12:22:32;13.50;95.50
16827;DHT22;8530;49.540;8.576;2023-04-01T12:25:17;13.60;95.40
16827;DHT22;8530;49.540;8.576;2023-04-01T12:27:57;13.60;95.30
16827;DHT22;8530;49.540;8.576;2023-04-01T12:30:46;13.70;95.20
16827;DHT22;8530;49.540;8.576;2023-04-01T12:33:51;13.80;95.10
16827;DHT22;8530;49.540;8.576;2023-04-01T12:36:33;13.80;94.90
16827;DHT22;8530;49.540;8.576;2023-04-01T12:39:16;13.90;94.70
16827;DHT22;8530;49.540;8.576;2023-04-01T12:41:52;13.90;94.60
16827;DHT22;8530;49.540;8.576;2023-04-01T12:44:40;14.00;94.50
16827;DHT22;8530;49.540;8.576;2023-04-01T12:47:44;14.00;94.30
16827;DHT22;8530;49.540;8.576;2023-04-01T12:50:38;14.00;94.20
16827;DHT22;8530;49.540;8.576;2023-04-01T12:53:21;14.10;94.00
16827;DHT22;8530;49.540;8.576;2023-04-01T12:55:51;14.20;93.80
16827;DHT22;8530;49.540;8.576;2023-04-01T12:58:32;14.30;93.80
16827;DHT22;8530;49.540;8.576;2023-04-01T13:01:23;14.40;93.50
16827;DHT22;8530;49.540;8.576;2023-04-01T13:04:15;14.50;93.30
16827;DHT22;8530;49.540;8.576;2023-04-01T13:06:57;14.60;93.10
16827;DHT22;8530;49.540;8.576;2023-04-01T13:09:35;14.60;92.90
16827;DHT22;8530;49.540;8.576;2023-04-01T13:15:12;14.50;92.30
16827;DHT22;8530;49.540;8.576;2023-04-01T13:17:47;14.40;92.10
16827;DHT22;8530;49.540;8.576;2023-04-01T13:20:25;14.40;92.00
16827;DHT22;8530;49.540;8.576;2023-04-01T13:23:04;14.30;91.90
16827;DHT22;8530;49.540;8.576;2023-04-01T13:25:39;14.20;91.70
16827;DHT22;8530;49.540;8.576;2023-04-01T13:28:12;14.20;91.70
16827;DHT22;8530;49.540;8.576;2023-04-01T13:30:47;14.10;91.50
16827;DHT22;8530;49.540;8.576;2023-04-01T13:33:21;14.00;91.40
16827;DHT22;8530;49.540;8.576;2023-04-01T13:36:01;14.00;91.30
16827;DHT22;8530;49.540;8.576;2023-04-01T13:39:01;13.90;91.30
16827;DHT22;8530;49.540;8.576;2023-04-01T13:41:43;13.80;91.30
16827;DHT22;8530;49.540;8.576;2023-04-01T13:44:15;13.80;91.30
16827;DHT22;8530;49.540;8.576;2023-04-01T13:47:03;13.80;91.40
16827;DHT22;8530;49.540;8.576;2023-04-01T13:52:52;13.90;91.30
16827;DHT22;8530;49.540;8.576;2023-04-01T13:55:34;13.90;91.10
16827;DHT22;8530;49.540;8.576;2023-04-01T13:58:23;14.00;91.10
16827;DHT22;8530;49.540;8.576;2023-04-01T14:01:00;14.00;91.00
16827;DHT22;8530;49.540;8.576;2023-04-01T14:03:44;14.10;91.00
16827;DHT22;8530;49.540;8.576;2023-04-01T14:06:23;14.10;90.90
16827;DHT22;8530;49.540;8.576;2023-04-01T14:09:12;14.10;90.70
16827;DHT22;8530;49.540;8.576;2023-04-01T14:11:47;14.00;90.50
16827;DHT22;8530;49.540;8.576;2023-04-01T14:14:28;14.00;90.50
16827;DHT22;8530;49.540;8.576;2023-04-01T14:17:17;14.00;90.40
16827;DHT22;8530;49.540;8.576;2023-04-01T14:20:20;14.00;90.40
16827;DHT22;8530;49.540;8.576;2023-04-01T14:22:57;14.00;90.40
16827;DHT22;8530;49.540;8.576;2023-04-01T14:25:41;14.00;90.30
16827;DHT22;8530;49.540;8.576;2023-04-01T14:28:21;13.90;90.30
16827;DHT22;8530;49.540;8.576;2023-04-01T14:31:00;13.90;90.30
16827;DHT22;8530;49.540;8.576;2023-04-01T14:33:40;13.80;90.30
16827;DHT22;8530;49.540;8.576;2023-04-01T14:36:27;13.80;90.30
16827;DHT22;8530;49.540;8.576;2023-04-01T14:39:00;13.80;90.30
16827;DHT22;8530;49.540;8.576;2023-04-01T14:41:43;13.70;90.30
16827;DHT22;8530;49.540;8.576;2023-04-01T14:44:28;13.70;90.30
16827;DHT22;8530;49.540;8.576;2023-04-01T14:47:15;13.70;90.40
16827;DHT22;8530;49.540;8.576;2023-04-01T14:49:51;13.70;90.40
16827;DHT22;8530;49.540;8.576;2023-04-01T14:52:24;13.70;90.30
16827;DHT22;8530;49.540;8.576;2023-04-01T14:54:54;13.70;90.30
16827;DHT22;8530;49.540;8.576;2023-04-01T14:57:24;13.70;90.20
16827;DHT22;8530;49.540;8.576;2023-04-01T14:59:54;13.70;90.20
16827;DHT22;8530;49.540;8.576;2023-04-01T15:02:41;13.70;90.20
16827;DHT22;8530;49.540;8.576;2023-04-01T15:05:16;13.60;90.10
16827;DHT22;8530;49.540;8.576;2023-04-01T15:08:14;13.60;90.10
16827;DHT22;8530;49.540;8.576;2023-04-01T15:10:53;13.60;90.00
16827;DHT22;8530;49.540;8.576;2023-04-01T15:13:48;13.60;90.00
16827;DHT22;8530;49.540;8.576;2023-04-01T15:16:23;13.60;90.00
16827;DHT22;8530;49.540;8.576;2023-04-01T15:19:01;13.60;89.80
16827;DHT22;8530;49.540;8.576;2023-04-01T15:21:56;13.60;89.80
16827;DHT22;8530;49.540;8.576;2023-04-01T15:24:34;13.60;89.70
16827;DHT22;8530;49.540;8.576;2023-04-01T15:27:21;13.60;89.70
16827;DHT22;8530;49.540;8.576;2023-04-01T15:30:16;13.60;89.70
16827;DHT22;8530;49.540;8.576;2023-04-01T15:32:54;13.70;89.70
16827;DHT22;8530;49.540;8.576;2023-04-01T15:35:35;13.70;89.60
16827;DHT22;8530;49.540;8.576;2023-04-01T15:38:08;13.60;89.40
16827;DHT22;8530;49.540;8.576;2023-04-01T15:40:42;13.70;89.40
16827;DHT22;8530;49.540;8.576;2023-04-01T15:43:18;13.70;89.30
16827;DHT22;8530;49.540;8.576;2023-04-01T15:45:55;13.70;89.20
16827;DHT22;8530;49.540;8.576;2023-04-01T15:48:33;13.70;89.10
16827;DHT22;8530;49.540;8.576;2023-04-01T15:51:11;13.60;88.90
16827;DHT22;8530;49.540;8.576;2023-04-01T15:54:05;13.60;88.90
16827;DHT22;8530;49.540;8.576;2023-04-01T15:56:45;13.60;89.00
16827;DHT22;8530;49.540;8.576;2023-04-01T15:59:27;13.50;88.90
16827;DHT22;8530;49.540;8.576;2023-04-01T16:01:59;13.50;88.90
16827;DHT22;8530;49.540;8.576;2023-04-01T16:04:57;13.50;88.90
16827;DHT22;8530;49.540;8.576;2023-04-01T16:07:43;13.40;88.80
16827;DHT22;8530;49.540;8.576;2023-04-01T16:10:29;13.30;88.70
16827;DHT22;8530;49.540;8.576;2023-04-01T16:13:08;13.30;88.80
16827;DHT22;8530;49.540;8.576;2023-04-01T16:15:41;13.20;88.80
16827;DHT22;8530;49.540;8.576;2023-04-01T16:18:29;13.20;88.90
16827;DHT22;8530;49.540;8.576;2023-04-01T16:21:02;13.20;89.00
16827;DHT22;8530;49.540;8.576;2023-04-01T16:23:37;13.10;89.00
16827;DHT22;8530;49.540;8.576;2023-04-01T16:26:08;13.10;89.00
16827;DHT22;8530;49.540;8.576;2023-04-01T16:28:45;13.10;89.10
16827;DHT22;8530;49.540;8.576;2023-04-01T16:31:30;13.10;89.10
16827;DHT22;8530;49.540;8.576;2023-04-01T16:34:01;13.20;89.40
16827;DHT22;8530;49.540;8.576;2023-04-01T16:36:33;13.30;89.50
16827;DHT22;8530;49.540;8.576;2023-04-01T16:39:27;13.30;89.50
16827;DHT22;8530;49.540;8.576;2023-04-01T16:42:15;13.40;89.60
16827;DHT22;8530;49.540;8.576;2023-04-01T16:44:50;13.30;89.30
16827;DHT22;8530;49.540;8.576;2023-04-01T16:47:20;13.30;89.30
16827;DHT22;8530;49.540;8.576;2023-04-01T16:49:52;13.20;89.20
16827;DHT22;8530;49.540;8.576;2023-04-01T16:52:34;13.20;89.10
16827;DHT22;8530;49.540;8.576;2023-04-01T16:55:12;13.10;89.10
16827;DHT22;8530;49.540;8.576;2023-04-01T16:57:46;13.10;89.20
16827;DHT22;8530;49.540;8.576;2023-04-01T17:00:21;13.10;89.20
16827;DHT22;8530;49.540;8.576;2023-04-01T17:02:58;13.10;89.20
16827;DHT22;8530;49.540;8.576;2023-04-01T17:05:39;13.10;89.20
16827;DHT22;8530;49.540;8.576;2023-04-01T17:08:13;13.10;89.30
16827;DHT22;8530;49.540;8.576;2023-04-01T17:10:50;13.00;89.20
16827;DHT22;8530;49.540;8.576;2023-04-01T17:13:33;13.00;89.10
16827;DHT22;8530;49.540;8.576;2023-04-01T17:16:15;13.00;89.10
16827;DHT22;8530;49.540;8.576;2023-04-01T17:18:49;12.90;88.90
16827;DHT22;8530;49.540;8.576;2023-04-01T17:21:23;12.90;88.90
16827;DHT22;8530;49.540;8.576;2023-04-01T17:23:53;12.90;88.90
16827;DHT22;8530;49.540;8.576;2023-04-01T17:26:32;12.90;88.90